Time;durP1;ratioP1;P1;durP2;ratioP2;P2;SDS_P1;SDS_P2;PMS_P1;PMS_P2;Temp;Humidity;BMP_temperature;BMP_pressure;BME280_temperature;BME280_humidity;BME280_pressure;Samples;Min_cycle;Max_cycle;Signal;HPM_P1;HPM_P2
2022/10/21 00:01:14;;;;;;;17.75;9.70;;;;;;;15.80;100.00;99939.81;8394041;28;20089;-50
2022/10/21 00:05:15;;;;;;;18.00;8.43;;;;;;;15.70;100.00;99931.91;8393577;28;20085;-52
2022/10/21 00:09:16;;;;;;;13.98;6.88;;;;;;;15.68;100.00;99928.50;8393772;28;20044;-49
2022/10/21 00:13:16;;;;;;;11.35;6.05;;;;;;;15.60;100.00;99925.91;8393411;28;20041;-49
2022/10/21 00:17:17;;;;;;;12.82;5.82;;;;;;;15.57;100.00;99907.19;8394154;28;20119;-49
2022/10/21 00:21:20;;;;;;;9.80;4.90;;;;;;;15.65;100.00;99907.09;8393467;28;20043;-50
2022/10/21 00:25:21;;;;;;;6.25;4.57;;;;;;;15.74;100.00;99905.13;8393041;28;20047;-50
2022/10/21 00:29:21;;;;;;;11.48;5.47;;;;;;;15.88;100.00;99908.84;8393404;28;20115;-51
2022/10/21 00:33:23;;;;;;;11.00;5.07;;;;;;;16.05;100.00;99926.72;8392752;28;20401;-51
2022/10/21 00:37:24;;;;;;;8.43;5.32;;;;;;;16.15;100.00;99916.34;8392947;28;20044;-49
2022/10/21 00:41:24;;;;;;;10.57;5.70;;;;;;;16.14;100.00;99911.94;8392624;28;20101;-49
2022/10/21 00:45:28;;;;;;;12.45;6.10;;;;;;;15.99;100.00;99911.97;8392104;28;20036;-50
2022/10/21 00:49:39;;;;;;;11.70;5.75;;;;;;;15.87;100.00;99909.91;8384528;28;20141;-50
2022/10/21 00:53:47;;;;;;;16.10;6.30;;;;;;;15.91;100.00;99900.31;8392145;28;20040;-49
2022/10/21 00:57:49;;;;;;;11.20;6.10;;;;;;;15.86;100.00;99887.28;8391414;28;20047;-52
2022/10/21 01:01:50;;;;;;;10.73;6.30;;;;;;;15.80;100.00;99870.81;8392915;28;20397;-50
2022/10/21 01:05:52;;;;;;;10.95;6.28;;;;;;;15.81;100.00;99867.91;8391863;28;20093;-50
2022/10/21 01:09:53;;;;;;;14.85;6.63;;;;;;;15.85;100.00;99871.09;8391530;28;20045;-49
2022/10/21 01:14:33;;;;;;;11.95;6.97;;;;;;;15.81;100.00;99867.91;8392135;28;20047;-49
2022/10/21 01:19:00;;;;;;;13.40;7.10;;;;;;;15.82;100.00;99866.03;8389636;28;20413;-50
2022/10/21 01:27:35;;;;;;;6.68;4.88;;;;;;;15.89;100.00;99858.78;8457969;27;20131;-49
2022/10/21 01:31:44;;;;;;;12.52;5.53;;;;;;;15.91;100.00;99843.06;8451852;27;20036;-48
2022/10/21 01:36:01;;;;;;;11.77;5.38;;;;;;;15.89;100.00;99848.69;8451083;27;20044;-49
2022/10/21 01:40:11;;;;;;;10.77;3.92;;;;;;;16.04;100.00;99840.50;8449953;27;20035;-50
2022/10/21 01:44:22;;;;;;;6.85;3.50;;;;;;;16.17;100.00;99840.66;8450129;27;20036;-48
2022/10/21 01:48:29;;;;;;;6.00;2.83;;;;;;;16.25;100.00;99843.28;8450584;27;20096;-49
2022/10/21 01:52:30;;;;;;;7.57;3.00;;;;;;;16.17;100.00;99819.69;8450697;28;20509;-50
2022/10/21 01:56:32;;;;;;;6.18;2.97;;;;;;;16.22;100.00;99813.66;8450368;28;20456;-51
2022/10/21 02:00:35;;;;;;;6.90;2.70;;;;;;;16.26;100.00;99813.06;8449727;27;20043;-50
2022/10/21 02:04:39;;;;;;;6.18;2.95;;;;;;;16.06;100.00;99802.97;8449817;27;20088;-50
2022/10/21 02:08:41;;;;;;;6.20;2.88;;;;;;;15.97;100.00;99795.94;8450692;28;20051;-48
2022/10/21 02:12:44;;;;;;;5.13;3.10;;;;;;;15.93;100.00;99795.50;8449516;28;20051;-49
2022/10/21 02:16:47;;;;;;;6.32;3.25;;;;;;;15.83;100.00;99788.66;8449769;28;20118;-51
2022/10/21 02:20:53;;;;;;;6.75;2.72;;;;;;;15.75;100.00;99792.34;8449795;28;20120;-49
2022/10/21 02:25:00;;;;;;;6.90;2.70;;;;;;;15.70;100.00;99784.75;8447846;28;20375;-50
2022/10/21 02:29:00;;;;;;;5.88;2.55;;;;;;;15.83;100.00;99788.66;8447919;27;20035;-49
2022/10/21 02:33:10;;;;;;;5.82;2.67;;;;;;;15.96;100.00;99791.53;8448624;27;20531;-48
2022/10/21 02:37:32;;;;;;;8.43;2.40;;;;;;;16.01;100.00;99778.19;8436388;27;20382;-48
2022/10/21 02:41:36;;;;;;;5.88;2.13;;;;;;;16.07;100.00;99791.03;8426263;27;20040;-50
2022/10/21 02:45:38;;;;;;;4.60;2.15;;;;;;;16.04;100.00;99775.06;8425535;28;20040;-48
2022/10/21 02:49:39;;;;;;;4.57;2.15;;;;;;;16.05;100.00;99788.50;8426264;28;20047;-48
2022/10/21 02:53:40;;;;;;;2.50;2.05;;;;;;;16.08;100.00;99781.81;8425643;28;20046;-50
2022/10/21 02:57:40;;;;;;;9.70;2.08;;;;;;;16.00;100.00;99774.59;8426089;28;20032;-48
2022/10/21 03:01:41;;;;;;;3.97;1.85;;;;;;;15.99;100.00;99772.06;8425854;28;20524;-50
2022/10/21 03:05:41;;;;;;;6.22;2.05;;;;;;;16.00;100.00;99774.59;8425127;28;20051;-49
2022/10/21 03:09:42;;;;;;;6.18;2.10;;;;;;;15.95;100.00;99776.22;8424464;28;20047;-50
2022/10/21 03:13:42;;;;;;;5.68;2.35;;;;;;;15.93;100.00;99778.28;8425240;28;20036;-48
2022/10/21 03:17:43;;;;;;;3.45;1.88;;;;;;;15.78;100.00;99775.59;8423975;28;20427;-50
2022/10/21 03:21:44;;;;;;;5.03;2.20;;;;;;;15.81;100.00;99772.50;8424389;28;20050;-49
2022/10/21 03:25:44;;;;;;;6.93;2.53;;;;;;;15.81;100.00;99763.47;8424947;28;20074;-49
2022/10/21 03:29:45;;;;;;;2.38;2.00;;;;;;;15.83;100.00;99783.22;8423659;28;20047;-49
2022/10/21 03:33:45;;;;;;;2.60;2.03;;;;;;;15.77;100.00;99774.75;8424625;28;20428;-51
2022/10/21 03:37:46;;;;;;;4.60;2.10;;;;;;;15.80;100.00;99772.69;8425600;28;20039;-48
2022/10/21 03:41:46;;;;;;;6.80;2.40;;;;;;;15.82;100.00;99762.47;8425980;28;20115;-50
2022/10/21 03:45:47;;;;;;;7.22;2.53;;;;;;;15.90;100.00;99773.22;8426160;28;20036;-48
2022/10/21 03:49:48;;;;;;;3.67;2.00;;;;;;;15.96;100.00;99769.72;8425561;28;20070;-48
2022/10/21 03:53:48;;;;;;;7.25;2.20;;;;;;;15.97;100.00;99766.81;8426166;28;20058;-48
2022/10/21 03:57:49;;;;;;;4.28;2.28;;;;;;;16.07;100.00;99772.78;8426841;28;20062;-48
2022/10/21 04:01:49;;;;;;;3.45;1.90;;;;;;;16.06;100.00;99773.81;8424929;28;20040;-50
2022/10/21 04:05:50;;;;;;;2.88;2.20;;;;;;;16.07;100.00;99774.69;8424243;28;20241;-48
2022/10/21 04:09:50;;;;;;;7.18;2.42;;;;;;;16.09;100.00;99767.13;8418366;28;20052;-50
2022/10/21 04:13:51;;;;;;;5.57;2.08;;;;;;;16.16;100.00;99773.53;8407127;28;20596;-48
2022/10/21 04:17:52;;;;;;;9.50;1.80;;;;;;;16.28;100.00;99769.25;8420775;27;20040;-48
2022/10/21 04:21:52;;;;;;;4.65;2.03;;;;;;;16.35;100.00;99783.78;8419987;28;20032;-48
2022/10/21 04:25:53;;;;;;;5.30;1.80;;;;;;;16.37;100.00;99765.31;8423732;28;20069;-50
2022/10/21 04:29:53;;;;;;;4.75;2.08;;;;;;;16.33;100.00;99769.47;8423717;28;20509;-50
2022/10/21 04:33:54;;;;;;;3.83;1.80;;;;;;;16.30;100.00;99775.31;8425043;28;20502;-48
2022/10/21 04:37:55;;;;;;;6.38;2.10;;;;;;;16.28;100.00;99771.97;8412692;28;20032;-48
2022/10/21 04:41:56;;;;;;;3.08;1.92;;;;;;;16.30;100.00;99764.41;8391840;28;20105;-48
2022/10/21 04:45:56;;;;;;;7.38;1.98;;;;;;;16.34;100.00;99761.09;8415931;28;20043;-48
2022/10/21 04:49:57;;;;;;;8.98;1.85;;;;;;;16.36;100.00;99758.16;8424882;28;20097;-48
2022/10/21 04:53:58;;;;;;;3.78;1.83;;;;;;;16.28;100.00;99741.97;8422699;28;20056;-49
2022/10/21 04:57:58;;;;;;;4.57;2.00;;;;;;;16.29;100.00;99741.75;8424705;28;20107;-52
2022/10/21 05:01:59;;;;;;;4.22;1.70;;;;;;;16.28;100.00;99736.50;8418151;28;20119;-49
2022/10/21 05:05:59;;;;;;;8.07;2.22;;;;;;;16.29;100.00;99730.00;8401510;28;20454;-48
2022/10/21 05:10:00;;;;;;;4.55;1.92;;;;;;;16.34;100.00;99746.59;8390962;28;20049;-48
2022/10/21 05:14:00;;;;;;;3.85;1.95;;;;;;;16.38;100.00;99737.00;8420140;28;20035;-47
2022/10/21 05:18:01;;;;;;;5.07;1.80;;;;;;;16.40;100.00;99726.72;8423767;28;20063;-48
2022/10/21 05:22:02;;;;;;;5.10;1.67;;;;;;;16.42;100.00;99719.19;8421557;28;20036;-48
2022/10/21 05:26:02;;;;;;;3.20;1.52;;;;;;;16.46;100.00;99715.06;8421351;28;20408;-48
2022/10/21 05:30:04;;;;;;;6.72;1.75;;;;;;;16.51;100.00;99712.59;8419448;28;20036;-48
2022/10/21 05:34:04;;;;;;;9.13;3.28;;;;;;;16.55;100.00;99719.31;8422304;28;20039;-48
2022/10/21 05:38:05;;;;;;;4.57;2.03;;;;;;;16.51;100.00;99702.53;8421770;28;20505;-48
2022/10/21 05:42:06;;;;;;;8.55;2.40;;;;;;;16.48;100.00;99696.59;8416149;28;20059;-49
2022/10/21 05:46:07;;;;;;;7.53;2.55;;;;;;;16.32;100.00;99691.41;8419516;28;20085;-50
2022/10/21 05:50:10;;;;;;;7.72;2.50;;;;;;;16.42;100.00;99691.91;8419914;28;20062;-49
2022/10/21 05:54:11;;;;;;;5.72;2.28;;;;;;;16.27;100.00;99693.88;8420029;28;20055;-49
2022/10/21 05:58:11;;;;;;;8.48;2.75;;;;;;;16.26;100.00;99686.75;8418734;28;20028;-48
2022/10/21 06:02:12;;;;;;;4.75;2.40;;;;;;;16.24;100.00;99683.38;8420733;28;20040;-48
2022/10/21 06:06:12;;;;;;;7.40;2.80;;;;;;;16.35;100.00;99669.19;8425863;28;20042;-49
2022/10/21 06:10:15;;;;;;;4.72;2.58;;;;;;;16.41;100.00;99665.69;8413910;28;20051;-48
2022/10/21 06:14:15;;;;;;;6.68;3.28;;;;;;;16.35;100.00;99675.47;8416540;28;20051;-48
2022/10/21 06:18:16;;;;;;;4.60;3.17;;;;;;;16.42;100.00;99670.09;8401107;28;20064;-49
2022/10/21 06:22:17;;;;;;;9.23;3.47;;;;;;;16.41;100.00;99668.41;8392542;28;20044;-48
2022/10/21 06:26:17;;;;;;;8.68;3.38;;;;;;;16.54;100.00;99673.97;8392807;28;20055;-48
2022/10/21 06:30:18;;;;;;;10.73;4.38;;;;;;;16.65;100.00;99681.63;8420123;28;20067;-49
2022/10/21 06:34:19;;;;;;;5.80;3.35;;;;;;;16.80;100.00;99685.09;8425634;28;20127;-50
2022/10/21 06:38:21;;;;;;;7.18;3.65;;;;;;;16.81;100.00;99676.66;8425973;28;20032;-48
2022/10/21 06:42:21;;;;;;;9.25;2.95;;;;;;;16.87;100.00;99694.16;8425836;28;20437;-52
2022/10/21 06:46:22;;;;;;;7.22;3.63;;;;;;;17.03;100.00;99700.13;8424830;28;20036;-48
2022/10/21 06:50:23;;;;;;;6.38;3.55;;;;;;;17.20;100.00;99703.38;8425349;28;20508;-49
2022/10/21 06:54:23;;;;;;;12.73;4.95;;;;;;;17.19;100.00;99715.34;8424741;28;20126;-50
2022/10/21 06:58:24;;;;;;;11.80;3.58;;;;;;;17.20;100.00;99752.56;8422291;28;20556;-48
2022/10/21 07:02:24;;;;;;;8.95;3.85;;;;;;;17.17;100.00;99747.50;8424779;28;20116;-48
2022/10/21 07:06:25;;;;;;;7.43;4.20;;;;;;;17.19;100.00;99761.78;8424833;28;20028;-49
2022/10/21 07:10:26;;;;;;;10.50;4.55;;;;;;;17.10;100.00;99757.50;8424220;28;20063;-49
2022/10/21 07:14:26;;;;;;;9.27;4.60;;;;;;;17.28;100.00;99766.88;8421329;28;20071;-51
2022/10/21 07:18:27;;;;;;;10.80;5.40;;;;;;;17.38;100.00;99766.50;8440019;28;20036;-50
2022/10/21 07:22:28;;;;;;;12.18;5.47;;;;;;;17.40;100.00;99759.81;8423076;28;20531;-51
2022/10/21 07:26:32;;;;;;;11.55;4.68;;;;;;;17.41;100.00;99771.56;8424420;28;20119;-49
2022/10/21 07:30:38;;;;;;;12.45;5.65;;;;;;;17.36;100.00;99776.81;8423867;28;20089;-48
2022/10/21 07:34:39;;;;;;;11.77;4.80;;;;;;;17.22;100.00;99778.63;8422627;28;20508;-49
2022/10/21 07:38:45;;;;;;;12.13;5.65;;;;;;;17.11;100.00;99781.06;8418068;28;20408;-48
2022/10/21 07:42:45;;;;;;;13.68;6.07;;;;;;;17.07;100.00;99785.22;8423802;28;20044;-49
2022/10/21 07:46:48;;;;;;;17.73;7.05;;;;;;;16.92;100.00;99787.22;8423518;28;20469;-50
2022/10/21 07:50:49;;;;;;;21.88;7.38;;;;;;;16.75;100.00;99783.97;8404871;28;20446;-49
2022/10/21 07:54:50;;;;;;;11.45;6.60;;;;;;;16.52;100.00;99785.22;8411492;28;20123;-49
2022/10/21 07:58:51;;;;;;;14.80;7.00;;;;;;;16.37;100.00;99798.03;8410018;28;20052;-48
2022/10/21 08:02:54;;;;;;;21.27;7.93;;;;;;;16.33;100.00;99791.28;8399173;28;20392;-49
2022/10/21 08:06:55;;;;;;;15.38;8.40;;;;;;;16.33;100.00;99792.16;8413804;28;20035;-49
2022/10/21 08:10:56;;;;;;;14.98;8.93;;;;;;;16.38;100.00;99799.75;8402172;28;20039;-49
2022/10/21 08:14:57;;;;;;;18.67;9.05;;;;;;;16.49;100.00;99801.97;8415108;28;20036;-49
2022/10/21 08:18:59;;;;;;;13.75;9.40;;;;;;;16.61;100.00;99814.06;8420564;28;20039;-48
2022/10/21 08:23:00;;;;;;;24.27;8.65;;;;;;;16.69;100.00;99827.56;8422125;28;20400;-49
2022/10/21 08:27:03;;;;;;;17.38;9.10;;;;;;;16.74;100.00;99819.66;8422640;28;20042;-49
2022/10/21 08:31:09;;;;;;;17.55;8.23;;;;;;;16.78;100.00;99816.34;8422215;28;20047;-48
2022/10/21 08:35:09;;;;;;;13.90;7.30;;;;;;;16.76;100.00;99820.28;8410554;28;20041;-49
2022/10/21 08:39:10;;;;;;;16.90;5.85;;;;;;;16.80;100.00;99832.50;8388451;28;20040;-49
2022/10/21 08:43:33;;;;;;;7.65;4.95;;;;;;;16.82;100.00;99841.34;8419781;28;20055;-50
2022/10/21 08:47:44;;;;;;;9.90;4.05;;;;;;;16.82;100.00;99844.91;8421764;28;20405;-51
2022/10/21 08:51:50;;;;;;;12.85;3.45;;;;;;;16.84;100.00;99840.09;8421303;28;20048;-50
2022/10/21 08:56:00;;;;;;;7.13;3.30;;;;;;;16.81;100.00;99834.19;8404195;28;20036;-50
2022/10/21 09:00:05;;;;;;;7.47;3.50;;;;;;;16.74;100.00;99808.72;8420184;28;20062;-51
2022/10/21 09:04:17;;;;;;;12.77;3.33;;;;;;;16.72;100.00;99811.66;8420840;28;20105;-49
2022/10/21 09:13:09;;;;;;;8.73;3.38;;;;;;;16.66;100.00;99804.25;8457736;27;20397;-48
2022/10/21 09:17:26;;;;;;;7.38;1.90;;;;;;;16.67;100.00;99805.06;8449631;28;20039;-48
2022/10/21 09:26:33;;;;;;;2.08;1.10;;;;;;;16.82;100.00;99771.19;8457713;27;20128;-49
2022/10/21 09:30:34;;;;;;;4.45;1.20;;;;;;;16.80;100.00;99723.31;8449991;27;20070;-49
2022/10/21 09:35:01;;;;;;;3.40;1.20;;;;;;;16.82;100.00;99759.44;8449881;27;20488;-50
2022/10/21 09:39:11;;;;;;;4.40;1.27;;;;;;;16.80;100.00;99769.72;8436936;28;20036;-48
2022/10/21 09:43:23;;;;;;;2.85;0.90;;;;;;;16.78;100.00;99766.34;8438746;28;20044;-49
2022/10/21 09:47:24;;;;;;;1.80;0.82;;;;;;;16.82;100.00;99792.19;8434504;28;20051;-49
2022/10/21 09:51:30;;;;;;;2.75;0.90;;;;;;;16.84;100.00;99844.72;8449335;28;20131;-51
2022/10/21 09:55:32;;;;;;;5.40;1.42;;;;;;;16.81;100.00;99884.16;8436826;28;20418;-51
2022/10/21 09:59:36;;;;;;;3.40;1.80;;;;;;;16.90;100.00;99868.50;8442847;27;20443;-51
2022/10/21 10:03:42;;;;;;;3.30;1.53;;;;;;;16.84;100.00;99888.41;8448110;28;20043;-48
2022/10/21 10:07:42;;;;;;;4.28;2.00;;;;;;;16.75;100.00;99873.19;8449070;28;20050;-49
2022/10/21 10:12:04;;;;;;;6.05;1.98;;;;;;;16.69;100.00;99890.34;8447619;28;20119;-48
2022/10/21 10:16:26;;;;;;;3.75;1.90;;;;;;;16.72;100.00;99887.25;8449035;28;20501;-52
2022/10/21 10:20:28;;;;;;;6.63;2.08;;;;;;;16.70;100.00;99892.03;8449234;28;20488;-51
2022/10/21 10:24:30;;;;;;;3.85;1.65;;;;;;;16.67;100.00;99886.97;8448273;28;20093;-52
2022/10/21 10:28:31;;;;;;;5.22;1.85;;;;;;;16.66;100.00;99907.13;8448810;27;20097;-50
2022/10/21 10:32:34;;;;;;;4.28;2.10;;;;;;;16.68;100.00;99894.13;8447278;27;20122;-49
2022/10/21 10:36:38;;;;;;;6.40;3.00;;;;;;;16.64;100.00;99892.81;8424100;28;20028;-53
2022/10/21 10:40:41;;;;;;;8.05;2.83;;;;;;;16.66;100.00;99897.06;8425556;28;20046;-52
2022/10/21 10:44:43;;;;;;;5.13;3.22;;;;;;;16.63;100.00;99902.06;8425854;28;20036;-50
2022/10/21 10:48:49;;;;;;;11.95;2.97;;;;;;;16.65;100.00;99911.72;8424341;28;20067;-49
2022/10/21 10:53:20;;;;;;;16.05;4.90;;;;;;;16.70;100.00;99905.69;8424587;28;20039;-49
2022/10/21 10:57:25;;;;;;;46.25;20.13;;;;;;;16.74;100.00;99909.75;8425176;28;20263;-49
2022/10/21 11:01:33;;;;;;;24.17;13.27;;;;;;;16.81;100.00;99905.19;8425006;28;20093;-52
2022/10/21 11:05:41;;;;;;;15.27;9.52;;;;;;;16.89;100.00;99902.28;8424010;28;20047;-52
2022/10/21 11:09:41;;;;;;;18.42;10.20;;;;;;;17.00;100.00;99899.03;8408058;28;20048;-50
2022/10/21 11:13:43;;;;;;;14.60;6.88;;;;;;;17.17;100.00;99889.53;8424141;28;20076;-52
2022/10/21 11:18:00;;;;;;;6.38;4.47;;;;;;;17.50;100.00;99885.16;8401119;28;20029;-50
2022/10/21 11:22:12;;;;;;;10.05;3.67;;;;;;;17.87;100.00;99884.75;8379507;28;20040;-50
2022/10/21 11:26:36;;;;;;;7.55;3.28;;;;;;;18.25;100.00;99872.31;8391109;28;20046;-52
2022/10/21 11:30:43;;;;;;;;;;;;;;;18.60;100.00;99879.38;8416595;28;20032;-49
2022/10/21 11:34:58;;;;;;;2.85;1.70;;;;;;;19.25;100.00;99879.41;8390566;28;19920;-53
2022/10/21 11:39:26;;;;;;;6.35;1.95;;;;;;;20.94;100.00;99877.09;8408858;28;20036;-50
2022/10/21 11:44:06;;;;;;;3.55;1.67;;;;;;;20.69;98.74;99873.50;8418228;28;20372;-50
2022/10/21 11:48:27;;;;;;;2.58;1.65;;;;;;;20.21;100.00;99872.28;8404747;28;20053;-51
2022/10/21 11:52:40;;;;;;;2.75;1.65;;;;;;;20.99;98.05;99869.94;8403609;28;20515;-53
2022/10/21 11:56:54;;;;;;;4.53;1.55;;;;;;;20.69;99.55;99873.50;8403279;28;20090;-50
2022/10/21 12:01:23;;;;;;;2.33;1.42;;;;;;;21.62;93.49;99848.59;8408684;28;20036;-50
2022/10/21 12:05:35;;;;;;;3.85;1.25;;;;;;;22.83;85.83;99853.84;8395913;28;20036;-50
2022/10/21 12:09:44;;;;;;;3.03;1.33;;;;;;;21.54;92.29;99873.66;8409414;28;20501;-50
2022/10/21 12:13:51;;;;;;;3.97;1.00;;;;;;;21.29;92.93;99870.09;8403862;28;20058;-52
2022/10/21 12:17:53;;;;;;;4.95;1.20;;;;;;;20.54;100.00;99864.72;8419083;28;20054;-50
2022/10/21 12:21:54;;;;;;;4.05;1.10;;;;;;;20.41;100.00;99870.28;8417534;28;20046;-52
2022/10/21 12:26:24;;;;;;;3.38;0.80;;;;;;;20.04;100.00;99871.06;8408703;28;20496;-50
2022/10/21 12:30:52;;;;;;;2.92;1.00;;;;;;;19.93;100.00;99872.56;8412954;28;20119;-50
2022/10/21 12:34:54;;;;;;;1.98;1.00;;;;;;;20.01;100.00;99855.88;8419580;28;20477;-51
2022/10/21 12:38:57;;;;;;;2.33;0.68;;;;;;;20.27;99.90;99841.19;8435892;28;20055;-51
2022/10/21 12:43:01;;;;;;;1.58;0.75;;;;;;;20.43;95.81;99840.72;8420015;28;20040;-54
2022/10/21 12:47:19;;;;;;;2.47;0.60;;;;;;;20.51;94.15;99840.44;8414659;28;20046;-53
2022/10/21 12:51:25;;;;;;;1.02;0.40;;;;;;;20.56;94.61;99835.13;8419295;28;20039;-50
2022/10/21 12:55:27;;;;;;;2.08;0.80;;;;;;;20.59;96.15;99838.25;8418106;28;20055;-50
2022/10/21 12:59:34;;;;;;;0.95;0.50;;;;;;;20.72;96.02;99840.06;8419095;28;20052;-51
2022/10/21 13:03:54;;;;;;;1.58;0.50;;;;;;;20.82;95.22;99837.66;8422128;28;20028;-52
2022/10/21 13:12:32;;;;;;;2.35;0.45;;;;;;;21.55;91.99;99839.56;8454121;27;20133;-49
2022/10/21 13:17:13;;;;;;;0.93;0.40;;;;;;;21.67;86.18;99845.16;8446324;28;20040;-50
2022/10/21 13:25:39;;;;;;;1.98;0.30;;;;;;;21.51;85.68;99841.09;8457409;27;20132;-50
2022/10/21 13:29:46;;;;;;;0.75;0.40;;;;;;;21.58;86.78;99830.88;8445569;27;20092;-49
2022/10/21 13:33:53;;;;;;;2.15;0.43;;;;;;;21.97;85.40;99824.94;8446666;28;20044;-50
2022/10/21 13:37:57;;;;;;;1.38;0.60;;;;;;;21.82;82.18;99831.91;8443451;28;20039;-49
2022/10/21 13:42:01;;;;;;;;;;;;;;;21.76;83.85;99833.66;8413703;28;20037;-49
2022/10/21 13:46:07;;;;;;;0.98;0.35;;;;;;;21.80;84.58;99829.38;8447284;28;19924;-49
2022/10/21 13:54:19;;;;;;;1.92;0.32;;;;;;;21.66;83.85;99822.31;8455011;27;20542;-49
2022/10/21 13:58:22;;;;;;;1.60;0.68;;;;;;;21.53;82.03;99822.44;8442639;28;20032;-49
2022/10/21 14:02:24;;;;;;;2.50;0.30;;;;;;;21.38;83.80;99827.50;8443184;28;20043;-52
2022/10/21 14:06:31;;;;;;;0.70;0.55;;;;;;;21.40;85.63;99828.09;8429793;28;20275;-50
2022/10/21 14:10:31;;;;;;;2.30;0.52;;;;;;;21.37;83.45;99823.03;8441671;28;20440;-49
2022/10/21 14:14:36;;;;;;;0.70;0.40;;;;;;;21.37;84.28;99828.53;8436632;27;20135;-49
2022/10/21 14:18:41;;;;;;;1.25;0.40;;;;;;;21.53;83.57;99833.44;8440002;28;20584;-48
2022/10/21 14:22:47;;;;;;;1.90;0.55;;;;;;;21.63;83.18;99822.78;8397442;27;20055;-48
2022/10/21 14:26:48;;;;;;;1.45;0.40;;;;;;;21.39;83.24;99831.91;8423026;27;20405;-49
2022/10/21 14:30:49;;;;;;;2.70;0.43;;;;;;;21.40;82.47;99836.34;8445639;28;20039;-49
2022/10/21 14:39:21;;;;;;;0.52;0.32;;;;;;;21.29;83.55;99846.16;8405196;27;20133;-50
2022/10/21 14:43:33;;;;;;;2.75;0.55;;;;;;;21.31;85.30;99848.69;8395533;28;20086;-49
2022/10/21 14:47:35;;;;;;;1.75;0.50;;;;;;;21.08;85.77;99848.50;8413411;28;20051;-54
2022/10/21 14:51:37;;;;;;;2.30;0.50;;;;;;;20.94;87.49;99861.50;8413954;28;20070;-49
2022/10/21 14:55:39;;;;;;;1.92;0.57;;;;;;;20.98;86.52;99851.75;8410253;28;20140;-48
2022/10/21 14:59:41;;;;;;;1.52;0.45;;;;;;;20.97;85.67;99855.56;8413090;28;20129;-49
2022/10/21 15:03:47;;;;;;;0.98;0.47;;;;;;;20.89;85.35;99846.72;8414517;28;20081;-49
2022/10/21 15:07:48;;;;;;;1.27;0.65;;;;;;;20.80;85.30;99839.81;8411836;28;20040;-49
2022/10/21 15:11:49;;;;;;;0.70;0.40;;;;;;;20.64;86.35;99845.81;8394917;28;20042;-49
2022/10/21 15:15:51;;;;;;;0.95;0.73;;;;;;;20.56;88.27;99841.44;8400910;28;20041;-49
2022/10/21 15:19:52;;;;;;;2.17;0.50;;;;;;;20.46;89.46;99835.59;8393375;28;20109;-49
2022/10/21 15:23:56;;;;;;;1.77;0.60;;;;;;;20.34;90.69;99836.53;8404148;28;20044;-52
2022/10/21 15:27:58;;;;;;;1.58;0.52;;;;;;;20.27;91.39;99849.44;8410097;28;20086;-49
2022/10/21 15:32:09;;;;;;;1.95;0.60;;;;;;;20.16;92.49;99855.63;8399971;28;20051;-48
2022/10/21 15:36:12;;;;;;;1.67;0.55;;;;;;;20.12;93.41;99848.84;8395136;28;20036;-48
2022/10/21 15:40:12;;;;;;;1.08;0.40;;;;;;;19.89;95.36;99854.00;8415812;28;20041;-49
2022/10/21 15:44:20;;;;;;;1.33;0.70;;;;;;;19.78;95.92;99843.69;8415986;28;20040;-48
2022/10/21 15:48:22;;;;;;;1.42;0.60;;;;;;;19.78;94.73;99846.44;8407522;28;20124;-50
2022/10/21 15:52:23;;;;;;;2.92;0.50;;;;;;;19.64;96.32;99844.81;8391662;28;20497;-50
2022/10/21 15:56:24;;;;;;;1.30;0.70;;;;;;;19.52;96.89;99858.34;8383417;28;20040;-48
2022/10/21 16:00:24;;;;;;;5.13;0.88;;;;;;;19.32;98.22;99857.53;8367748;28;20051;-48
2022/10/21 16:04:25;;;;;;;1.30;0.70;;;;;;;19.22;98.71;99857.91;8375031;28;20040;-53
2022/10/21 16:08:26;;;;;;;2.75;0.70;;;;;;;19.09;99.42;99857.09;8377273;28;20487;-48
2022/10/21 16:12:26;;;;;;;1.17;0.52;;;;;;;18.92;100.00;99853.94;8379379;28;20530;-50
2022/10/21 16:16:27;;;;;;;0.95;0.68;;;;;;;18.79;100.00;99851.16;8370097;28;20067;-51
2022/10/21 16:20:30;;;;;;;1.17;0.70;;;;;;;18.65;100.00;99860.44;8369101;28;20069;-49
2022/10/21 16:24:31;;;;;;;2.15;0.90;;;;;;;18.60;100.00;99857.47;8389933;28;20409;-49
2022/10/21 16:28:31;;;;;;;2.08;0.60;;;;;;;18.49;100.00;99860.84;8384806;28;20044;-48
2022/10/21 16:32:34;;;;;;;0.82;0.70;;;;;;;18.40;100.00;99861.22;8377968;28;20094;-49
2022/10/21 16:36:36;;;;;;;1.60;1.00;;;;;;;18.37;100.00;99862.50;8360582;28;20460;-48
2022/10/21 16:40:37;;;;;;;1.48;0.63;;;;;;;18.28;100.00;99863.69;8378306;28;20053;-49
2022/10/21 16:44:38;;;;;;;3.53;0.63;;;;;;;18.35;100.00;99880.09;8397905;28;20044;-48
2022/10/21 16:48:39;;;;;;;0.63;0.50;;;;;;;18.40;100.00;99878.50;8376545;28;20106;-49
2022/10/21 16:52:39;;;;;;;2.15;0.70;;;;;;;18.44;100.00;99887.13;8367276;28;20071;-48
2022/10/21 16:56:40;;;;;;;1.58;0.95;;;;;;;18.38;100.00;99872.38;8375516;28;20470;-48
2022/10/21 17:00:40;;;;;;;2.30;0.70;;;;;;;18.31;100.00;99874.22;8371876;28;20087;-48
2022/10/21 17:04:42;;;;;;;2.97;0.60;;;;;;;18.38;99.43;99869.63;8378804;28;20036;-48
2022/10/21 17:08:42;;;;;;;4.45;0.82;;;;;;;18.24;100.00;99881.53;8379876;28;20037;-52
2022/10/21 17:12:43;;;;;;;4.07;0.80;;;;;;;18.17;100.00;99877.94;8382873;28;20055;-48
2022/10/21 17:16:44;;;;;;;0.65;0.60;;;;;;;18.10;100.00;99882.56;8388127;28;20044;-48
2022/10/21 17:20:45;;;;;;;0.60;0.50;;;;;;;18.01;100.00;99892.00;8387606;28;20421;-48
2022/10/21 17:24:47;;;;;;;1.85;0.90;;;;;;;17.99;100.00;99895.97;8388759;28;20055;-48
2022/10/21 17:28:48;;;;;;;3.17;0.90;;;;;;;17.88;100.00;99913.81;8388263;28;20119;-48
2022/10/21 17:32:48;;;;;;;3.75;0.70;;;;;;;17.79;100.00;99922.38;8383408;28;20033;-47
2022/10/21 17:36:49;;;;;;;2.15;0.52;;;;;;;17.63;100.00;99924.38;8379785;28;20071;-47
2022/10/21 17:40:49;;;;;;;3.63;1.05;;;;;;;17.40;100.00;99928.38;8388883;28;20123;-48
2022/10/21 17:44:51;;;;;;;5.10;1.70;;;;;;;17.26;100.00;99937.53;8367354;28;20036;-49
2022/10/21 17:48:54;;;;;;;3.85;1.48;;;;;;;17.05;100.00;99951.22;8386846;28;20042;-50
2022/10/21 17:52:55;;;;;;;7.95;1.80;;;;;;;16.76;100.00;99954.91;8386335;28;20040;-49
2022/10/21 17:56:56;;;;;;;2.35;1.65;;;;;;;16.51;100.00;99950.00;8387882;28;20093;-49
2022/10/21 18:00:57;;;;;;;3.08;1.25;;;;;;;16.43;100.00;99952.78;8388246;28;20032;-50
2022/10/21 18:04:59;;;;;;;3.25;2.47;;;;;;;16.22;100.00;99950.84;8374873;28;20108;-50
2022/10/21 18:09:02;;;;;;;4.78;2.38;;;;;;;16.00;100.00;99948.25;8387370;28;20405;-52
2022/10/21 18:13:02;;;;;;;3.15;1.60;;;;;;;16.04;100.00;99952.31;8388776;28;20036;-49
2022/10/21 18:17:03;;;;;;;3.65;1.63;;;;;;;16.13;100.00;99948.44;8377843;28;20040;-50
2022/10/21 18:21:08;;;;;;;3.20;1.60;;;;;;;16.15;100.00;99952.66;8388970;28;20119;-49
2022/10/21 18:25:09;;;;;;;5.22;1.88;;;;;;;16.11;100.00;99955.97;8387316;28;20165;-49
2022/10/21 18:29:09;;;;;;;2.88;1.88;;;;;;;16.07;100.00;99954.66;8383182;28;20063;-49
2022/10/21 18:33:10;;;;;;;4.38;2.08;;;;;;;15.98;100.00;99955.78;8389394;28;20497;-51
2022/10/21 18:37:11;;;;;;;5.03;2.50;;;;;;;15.90;100.00;99964.06;8389080;28;20556;-52
2022/10/21 18:41:14;;;;;;;7.68;4.20;;;;;;;15.84;100.00;99964.81;8389221;28;20116;-49
2022/10/21 18:45:15;;;;;;;4.63;2.35;;;;;;;15.79;100.00;99964.53;8388898;28;20421;-49
2022/10/21 18:49:17;;;;;;;6.15;1.98;;;;;;;15.73;100.00;99957.94;8405431;28;20135;-49
2022/10/21 18:53:18;;;;;;;5.70;1.60;;;;;;;15.70;100.00;99964.63;8387030;28;20056;-49
2022/10/21 18:57:18;;;;;;;4.03;1.52;;;;;;;15.76;100.00;99962.19;8388437;28;20098;-51
2022/10/21 19:01:20;;;;;;;3.03;2.15;;;;;;;15.69;100.00;99943.84;8389768;28;20036;-49
2022/10/21 19:05:22;;;;;;;3.75;1.42;;;;;;;15.56;100.00;99940.91;8389334;28;20037;-49
2022/10/21 19:09:24;;;;;;;5.88;1.90;;;;;;;15.40;100.00;99930.19;8388662;28;20518;-49
2022/10/21 19:13:26;;;;;;;4.65;3.90;;;;;;;15.29;100.00;99930.63;8393846;28;20036;-48
2022/10/21 19:17:26;;;;;;;3.67;2.78;;;;;;;15.29;100.00;99936.06;8403883;28;20048;-49
2022/10/21 19:21:27;;;;;;;5.93;2.30;;;;;;;15.30;100.00;99940.47;8389181;28;20052;-49
2022/10/21 19:25:28;;;;;;;3.53;2.30;;;;;;;15.31;100.00;99947.59;8394108;28;20059;-49
2022/10/21 19:29:29;;;;;;;2.30;1.85;;;;;;;15.40;100.00;99951.97;8395002;28;20044;-52